X06 weather

Arcadia Municipal Airport
Arcadia, Florida, United States

Public forecast

Using degrees Fahrenheit for public forecast. Weather courtesy of forecast.io.

Closest aviation weather report (METAR) to Arcadia Municipal Airport

Closest report is Charlotte County Airport, 18.3 nm (33.8 km) SSW. Retrieved 2020/04/09 00:53 UTC (11 minutes ago):

KPGD 090053Z AUTO 28008KT 10SM CLR 24/22 A2995 RMK AO2 SLP141 T02440222

Closest aviation forecast (TAF) to Arcadia Municipal Airport

Closest forecast is Charlotte County Airport, 18.3 nm (33.8 km) SSW. Retrieved 2020-04-09 00:39 UTC (25 minutes ago):

TAF KPGD 082335Z 0900/0924 26010KT P6SM SCT025 SCT250 TEMPO 0910/0914 5SM BR SCT010 BKN025 FM091400 27012KT P6SM SCT025 SCT035 FM091800 28012G22KT P6SM SCT040 SCT250